sensor_id;sensor_type;location;lat;lon;timestamp;P1;durP1;ratioP1;P2;durP2;ratioP2
70757;SDS011;59316;52.964;7.102;2022-11-15T00:02:29;35.08;;;17.98;;
70757;SDS011;59316;52.964;7.102;2022-11-15T00:07:50;37.15;;;18.33;;
70757;SDS011;59316;52.964;7.102;2022-11-15T00:13:15;36.80;;;17.30;;
70757;SDS011;59316;52.964;7.102;2022-11-15T00:18:37;36.58;;;18.10;;
70757;SDS011;59316;52.964;7.102;2022-11-15T00:23:58;36.63;;;18.42;;
70757;SDS011;59316;52.964;7.102;2022-11-15T00:29:19;37.92;;;18.08;;
70757;SDS011;59316;52.964;7.102;2022-11-15T00:34:40;35.88;;;17.77;;
70757;SDS011;59316;52.964;7.102;2022-11-15T00:40:00;40.03;;;17.60;;
70757;SDS011;59316;52.964;7.102;2022-11-15T00:45:22;36.58;;;17.30;;
70757;SDS011;59316;52.964;7.102;2022-11-15T00:50:42;34.47;;;16.52;;
70757;SDS011;59316;52.964;7.102;2022-11-15T00:56:03;33.20;;;16.40;;
70757;SDS011;59316;52.964;7.102;2022-11-15T01:01:24;38.47;;;17.20;;
70757;SDS011;59316;52.964;7.102;2022-11-15T01:06:45;32.35;;;16.65;;
70757;SDS011;59316;52.964;7.102;2022-11-15T01:12:06;34.83;;;17.60;;
70757;SDS011;59316;52.964;7.102;2022-11-15T01:17:27;33.28;;;17.45;;
70757;SDS011;59316;52.964;7.102;2022-11-15T01:22:48;34.10;;;17.23;;
70757;SDS011;59316;52.964;7.102;2022-11-15T01:28:09;35.00;;;16.92;;
70757;SDS011;59316;52.964;7.102;2022-11-15T01:33:29;30.90;;;16.02;;
70757;SDS011;59316;52.964;7.102;2022-11-15T01:38:54;33.50;;;15.10;;
70757;SDS011;59316;52.964;7.102;2022-11-15T01:44:38;29.60;;;15.40;;
70757;SDS011;59316;52.964;7.102;2022-11-15T01:50:06;35.42;;;15.55;;
70757;SDS011;59316;52.964;7.102;2022-11-15T01:55:31;30.55;;;13.88;;
70757;SDS011;59316;52.964;7.102;2022-11-15T02:00:52;29.33;;;13.98;;
70757;SDS011;59316;52.964;7.102;2022-11-15T02:06:13;27.17;;;13.32;;
70757;SDS011;59316;52.964;7.102;2022-11-15T02:11:35;32.60;;;14.00;;
70757;SDS011;59316;52.964;7.102;2022-11-15T02:28:34;31.40;;;14.57;;
70757;SDS011;59316;52.964;7.102;2022-11-15T02:34:12;28.48;;;14.35;;
70757;SDS011;59316;52.964;7.102;2022-11-15T02:40:01;32.90;;;14.02;;
70757;SDS011;59316;52.964;7.102;2022-11-15T02:45:28;31.95;;;14.18;;
70757;SDS011;59316;52.964;7.102;2022-11-15T02:50:55;40.00;;;14.13;;
70757;SDS011;59316;52.964;7.102;2022-11-15T02:56:16;28.90;;;13.50;;
70757;SDS011;59316;52.964;7.102;2022-11-15T03:07:18;33.55;;;14.65;;
70757;SDS011;59316;52.964;7.102;2022-11-15T03:12:55;36.72;;;15.50;;
70757;SDS011;59316;52.964;7.102;2022-11-15T03:18:21;39.65;;;14.82;;
70757;SDS011;59316;52.964;7.102;2022-11-15T03:23:53;36.75;;;15.65;;
70757;SDS011;59316;52.964;7.102;2022-11-15T03:29:23;35.10;;;16.67;;
70757;SDS011;59316;52.964;7.102;2022-11-15T03:34:52;35.17;;;15.68;;
70757;SDS011;59316;52.964;7.102;2022-11-15T03:40:18;37.05;;;15.90;;
70757;SDS011;59316;52.964;7.102;2022-11-15T03:45:50;29.92;;;15.65;;
70757;SDS011;59316;52.964;7.102;2022-11-15T03:51:33;37.72;;;15.85;;
70757;SDS011;59316;52.964;7.102;2022-11-15T03:56:53;45.08;;;16.90;;
70757;SDS011;59316;52.964;7.102;2022-11-15T04:02:15;40.08;;;18.02;;
70757;SDS011;59316;52.964;7.102;2022-11-15T04:07:36;45.85;;;18.55;;
70757;SDS011;59316;52.964;7.102;2022-11-15T04:12:56;50.78;;;20.08;;
70757;SDS011;59316;52.964;7.102;2022-11-15T04:18:17;48.88;;;19.95;;
70757;SDS011;59316;52.964;7.102;2022-11-15T04:23:38;43.65;;;20.30;;
70757;SDS011;59316;52.964;7.102;2022-11-15T04:28:59;46.03;;;20.35;;
70757;SDS011;59316;52.964;7.102;2022-11-15T04:34:19;48.80;;;20.80;;
70757;SDS011;59316;52.964;7.102;2022-11-15T04:39:40;50.88;;;20.63;;
70757;SDS011;59316;52.964;7.102;2022-11-15T04:45:02;50.50;;;21.88;;
70757;SDS011;59316;52.964;7.102;2022-11-15T04:50:22;57.53;;;21.85;;
70757;SDS011;59316;52.964;7.102;2022-11-15T04:55:46;53.58;;;21.27;;
70757;SDS011;59316;52.964;7.102;2022-11-15T05:01:07;60.57;;;23.03;;
70757;SDS011;59316;52.964;7.102;2022-11-15T05:06:30;54.97;;;21.73;;
70757;SDS011;59316;52.964;7.102;2022-11-15T05:11:51;57.83;;;20.92;;
70757;SDS011;59316;52.964;7.102;2022-11-15T05:17:11;56.72;;;21.40;;
70757;SDS011;59316;52.964;7.102;2022-11-15T05:22:32;47.58;;;19.83;;
70757;SDS011;59316;52.964;7.102;2022-11-15T05:27:53;50.70;;;20.42;;
70757;SDS011;59316;52.964;7.102;2022-11-15T05:33:13;41.78;;;20.40;;
70757;SDS011;59316;52.964;7.102;2022-11-15T05:38:34;41.10;;;17.85;;
70757;SDS011;59316;52.964;7.102;2022-11-15T05:43:55;36.45;;;18.42;;
70757;SDS011;59316;52.964;7.102;2022-11-15T05:49:17;45.08;;;18.00;;
70757;SDS011;59316;52.964;7.102;2022-11-15T05:54:40;43.10;;;17.38;;
70757;SDS011;59316;52.964;7.102;2022-11-15T06:00:02;33.90;;;16.70;;
70757;SDS011;59316;52.964;7.102;2022-11-15T06:05:24;33.42;;;16.77;;
70757;SDS011;59316;52.964;7.102;2022-11-15T06:10:45;37.63;;;16.52;;
70757;SDS011;59316;52.964;7.102;2022-11-15T06:16:06;30.05;;;15.65;;
70757;SDS011;59316;52.964;7.102;2022-11-15T06:21:27;34.97;;;16.48;;
70757;SDS011;59316;52.964;7.102;2022-11-15T06:26:47;34.53;;;16.48;;
70757;SDS011;59316;52.964;7.102;2022-11-15T06:32:09;32.78;;;15.55;;
70757;SDS011;59316;52.964;7.102;2022-11-15T06:37:30;35.80;;;17.27;;
70757;SDS011;59316;52.964;7.102;2022-11-15T06:42:50;33.03;;;16.50;;
70757;SDS011;59316;52.964;7.102;2022-11-15T06:48:11;28.45;;;15.70;;
70757;SDS011;59316;52.964;7.102;2022-11-15T06:53:31;30.10;;;15.30;;
70757;SDS011;59316;52.964;7.102;2022-11-15T06:58:53;30.40;;;16.17;;
70757;SDS011;59316;52.964;7.102;2022-11-15T07:04:15;30.15;;;15.57;;
70757;SDS011;59316;52.964;7.102;2022-11-15T07:09:36;30.75;;;15.65;;
70757;SDS011;59316;52.964;7.102;2022-11-15T07:14:57;34.03;;;15.65;;
70757;SDS011;59316;52.964;7.102;2022-11-15T07:20:18;33.05;;;14.48;;
70757;SDS011;59316;52.964;7.102;2022-11-15T07:25:38;27.38;;;14.50;;
70757;SDS011;59316;52.964;7.102;2022-11-15T07:31:03;30.65;;;15.25;;
70757;SDS011;59316;52.964;7.102;2022-11-15T07:36:25;26.27;;;14.18;;
70757;SDS011;59316;52.964;7.102;2022-11-15T07:41:46;25.60;;;14.85;;
70757;SDS011;59316;52.964;7.102;2022-11-15T07:47:07;26.13;;;14.43;;
70757;SDS011;59316;52.964;7.102;2022-11-15T07:52:28;27.77;;;14.43;;
70757;SDS011;59316;52.964;7.102;2022-11-15T07:57:48;29.67;;;14.68;;
70757;SDS011;59316;52.964;7.102;2022-11-15T08:03:11;26.92;;;14.75;;
70757;SDS011;59316;52.964;7.102;2022-11-15T08:08:32;27.48;;;14.48;;
70757;SDS011;59316;52.964;7.102;2022-11-15T08:13:53;27.88;;;14.52;;
70757;SDS011;59316;52.964;7.102;2022-11-15T08:19:13;27.15;;;14.57;;
70757;SDS011;59316;52.964;7.102;2022-11-15T08:24:34;25.13;;;13.48;;
70757;SDS011;59316;52.964;7.102;2022-11-15T08:29:55;26.65;;;14.75;;
70757;SDS011;59316;52.964;7.102;2022-11-15T08:35:19;25.47;;;13.67;;
70757;SDS011;59316;52.964;7.102;2022-11-15T08:40:45;26.90;;;14.30;;
70757;SDS011;59316;52.964;7.102;2022-11-15T08:46:07;25.67;;;14.40;;
70757;SDS011;59316;52.964;7.102;2022-11-15T08:51:31;29.40;;;14.65;;
70757;SDS011;59316;52.964;7.102;2022-11-15T08:56:52;31.55;;;14.15;;
70757;SDS011;59316;52.964;7.102;2022-11-15T09:02:13;22.58;;;14.10;;
70757;SDS011;59316;52.964;7.102;2022-11-15T09:07:35;26.90;;;13.73;;
70757;SDS011;59316;52.964;7.102;2022-11-15T09:12:58;26.20;;;13.65;;
70757;SDS011;59316;52.964;7.102;2022-11-15T09:18:19;27.00;;;15.02;;
70757;SDS011;59316;52.964;7.102;2022-11-15T09:23:41;22.92;;;13.40;;
70757;SDS011;59316;52.964;7.102;2022-11-15T09:29:02;25.38;;;14.45;;
70757;SDS011;59316;52.964;7.102;2022-11-15T09:34:23;25.88;;;14.40;;
70757;SDS011;59316;52.964;7.102;2022-11-15T09:39:44;26.10;;;13.48;;
70757;SDS011;59316;52.964;7.102;2022-11-15T09:45:14;24.60;;;13.55;;
70757;SDS011;59316;52.964;7.102;2022-11-15T09:51:03;25.02;;;14.18;;
70757;SDS011;59316;52.964;7.102;2022-11-15T09:56:22;22.60;;;13.10;;
70757;SDS011;59316;52.964;7.102;2022-11-15T10:06:30;27.17;;;14.40;;
70757;SDS011;59316;52.964;7.102;2022-11-15T10:11:36;23.55;;;12.82;;
70757;SDS011;59316;52.964;7.102;2022-11-15T10:27:25;20.55;;;11.70;;
70757;SDS011;59316;52.964;7.102;2022-11-15T10:32:27;20.05;;;10.85;;
70757;SDS011;59316;52.964;7.102;2022-11-15T10:37:31;18.48;;;11.25;;
70757;SDS011;59316;52.964;7.102;2022-11-15T10:42:33;19.80;;;10.88;;
70757;SDS011;59316;52.964;7.102;2022-11-15T10:47:36;18.08;;;10.68;;
70757;SDS011;59316;52.964;7.102;2022-11-15T10:52:43;19.20;;;10.38;;
70757;SDS011;59316;52.964;7.102;2022-11-15T10:57:52;15.65;;;10.60;;
70757;SDS011;59316;52.964;7.102;2022-11-15T11:02:58;15.25;;;10.13;;
70757;SDS011;59316;52.964;7.102;2022-11-15T11:08:04;16.83;;;10.63;;
70757;SDS011;59316;52.964;7.102;2022-11-15T11:13:23;15.57;;;10.15;;
70757;SDS011;59316;52.964;7.102;2022-11-15T11:18:33;13.30;;;10.27;;
70757;SDS011;59316;52.964;7.102;2022-11-15T11:23:53;15.70;;;10.18;;
70757;SDS011;59316;52.964;7.102;2022-11-15T11:45:23;11.05;;;8.52;;
70757;SDS011;59316;52.964;7.102;2022-11-15T11:50:32;12.18;;;9.00;;
70757;SDS011;59316;52.964;7.102;2022-11-15T11:55:43;11.07;;;8.57;;
70757;SDS011;59316;52.964;7.102;2022-11-15T12:00:51;9.25;;;7.38;;
70757;SDS011;59316;52.964;7.102;2022-11-15T12:05:58;6.43;;;4.75;;
70757;SDS011;59316;52.964;7.102;2022-11-15T12:16:45;6.28;;;4.20;;
70757;SDS011;59316;52.964;7.102;2022-11-15T12:22:00;4.18;;;3.13;;
70757;SDS011;59316;52.964;7.102;2022-11-15T12:32:40;5.13;;;3.20;;
70757;SDS011;59316;52.964;7.102;2022-11-15T12:37:53;4.03;;;2.85;;
70757;SDS011;59316;52.964;7.102;2022-11-15T12:53:43;5.77;;;3.10;;
70757;SDS011;59316;52.964;7.102;2022-11-15T12:58:53;7.07;;;3.37;;
70757;SDS011;59316;52.964;7.102;2022-11-15T13:19:43;5.13;;;2.30;;
70757;SDS011;59316;52.964;7.102;2022-11-15T13:24:47;6.18;;;2.72;;
70757;SDS011;59316;52.964;7.102;2022-11-15T13:29:49;5.27;;;2.40;;
70757;SDS011;59316;52.964;7.102;2022-11-15T13:34:51;5.00;;;2.50;;
70757;SDS011;59316;52.964;7.102;2022-11-15T13:39:54;2.57;;;2.30;;
70757;SDS011;59316;52.964;7.102;2022-11-15T13:45:00;3.70;;;2.47;;
70757;SDS011;59316;52.964;7.102;2022-11-15T13:50:05;3.42;;;2.42;;
70757;SDS011;59316;52.964;7.102;2022-11-15T13:55:13;2.80;;;1.80;;
70757;SDS011;59316;52.964;7.102;2022-11-15T14:05:29;3.13;;;1.70;;
70757;SDS011;59316;52.964;7.102;2022-11-15T14:10:32;3.97;;;2.20;;
70757;SDS011;59316;52.964;7.102;2022-11-15T14:15:38;3.97;;;2.00;;
70757;SDS011;59316;52.964;7.102;2022-11-15T14:20:40;5.07;;;1.90;;
70757;SDS011;59316;52.964;7.102;2022-11-15T14:25:51;6.35;;;2.17;;
70757;SDS011;59316;52.964;7.102;2022-11-15T14:30:58;4.18;;;2.30;;
70757;SDS011;59316;52.964;7.102;2022-11-15T14:36:06;4.90;;;2.22;;
70757;SDS011;59316;52.964;7.102;2022-11-15T14:46:26;5.03;;;2.73;;
70757;SDS011;59316;52.964;7.102;2022-11-15T14:51:28;6.63;;;2.95;;
70757;SDS011;59316;52.964;7.102;2022-11-15T14:56:31;5.30;;;3.28;;
70757;SDS011;59316;52.964;7.102;2022-11-15T15:01:33;6.25;;;3.65;;
70757;SDS011;59316;52.964;7.102;2022-11-15T15:06:36;4.90;;;3.87;;
70757;SDS011;59316;52.964;7.102;2022-11-15T15:11:38;6.43;;;3.27;;
70757;SDS011;59316;52.964;7.102;2022-11-15T15:16:40;5.20;;;3.87;;
70757;SDS011;59316;52.964;7.102;2022-11-15T15:21:42;5.03;;;3.88;;
70757;SDS011;59316;52.964;7.102;2022-11-15T15:26:45;8.40;;;4.77;;
70757;SDS011;59316;52.964;7.102;2022-11-15T15:31:47;6.88;;;4.80;;
70757;SDS011;59316;52.964;7.102;2022-11-15T15:36:50;7.68;;;4.72;;
70757;SDS011;59316;52.964;7.102;2022-11-15T15:42:28;10.80;;;4.47;;
70757;SDS011;59316;52.964;7.102;2022-11-15T15:47:30;7.63;;;3.90;;
70757;SDS011;59316;52.964;7.102;2022-11-15T15:52:33;13.97;;;4.50;;
70757;SDS011;59316;52.964;7.102;2022-11-15T15:57:35;6.05;;;3.65;;
70757;SDS011;59316;52.964;7.102;2022-11-15T16:02:37;6.68;;;3.60;;
70757;SDS011;59316;52.964;7.102;2022-11-15T16:07:41;7.38;;;3.88;;
70757;SDS011;59316;52.964;7.102;2022-11-15T16:12:44;5.40;;;3.80;;
70757;SDS011;59316;52.964;7.102;2022-11-15T16:18:04;4.90;;;3.30;;
70757;SDS011;59316;52.964;7.102;2022-11-15T16:23:11;5.05;;;2.92;;
70757;SDS011;59316;52.964;7.102;2022-11-15T16:33:23;4.72;;;3.10;;
70757;SDS011;59316;52.964;7.102;2022-11-15T16:38:25;5.60;;;3.50;;
70757;SDS011;59316;52.964;7.102;2022-11-15T16:43:28;6.07;;;3.60;;
70757;SDS011;59316;52.964;7.102;2022-11-15T16:48:30;4.15;;;3.10;;
70757;SDS011;59316;52.964;7.102;2022-11-15T16:53:33;5.13;;;3.00;;
70757;SDS011;59316;52.964;7.102;2022-11-15T16:58:36;4.18;;;3.03;;
70757;SDS011;59316;52.964;7.102;2022-11-15T17:03:38;4.55;;;3.38;;
70757;SDS011;59316;52.964;7.102;2022-11-15T17:08:40;6.65;;;3.03;;
70757;SDS011;59316;52.964;7.102;2022-11-15T17:13:42;7.20;;;3.10;;
70757;SDS011;59316;52.964;7.102;2022-11-15T17:18:49;5.22;;;2.65;;
70757;SDS011;59316;52.964;7.102;2022-11-15T17:23:52;6.43;;;3.20;;
70757;SDS011;59316;52.964;7.102;2022-11-15T17:28:54;8.45;;;2.72;;
70757;SDS011;59316;52.964;7.102;2022-11-15T17:33:57;5.20;;;2.50;;
70757;SDS011;59316;52.964;7.102;2022-11-15T17:38:59;3.00;;;1.93;;
70757;SDS011;59316;52.964;7.102;2022-11-15T17:44:02;3.83;;;2.47;;
70757;SDS011;59316;52.964;7.102;2022-11-15T17:49:04;2.87;;;2.40;;
70757;SDS011;59316;52.964;7.102;2022-11-15T17:54:08;2.97;;;2.08;;
70757;SDS011;59316;52.964;7.102;2022-11-15T17:59:11;4.20;;;2.30;;
70757;SDS011;59316;52.964;7.102;2022-11-15T18:04:18;3.20;;;2.13;;
70757;SDS011;59316;52.964;7.102;2022-11-15T18:09:20;4.38;;;2.58;;
70757;SDS011;59316;52.964;7.102;2022-11-15T18:14:23;4.43;;;2.27;;
70757;SDS011;59316;52.964;7.102;2022-11-15T18:19:25;3.10;;;2.17;;
70757;SDS011;59316;52.964;7.102;2022-11-15T18:24:31;2.70;;;2.03;;
70757;SDS011;59316;52.964;7.102;2022-11-15T18:29:35;2.50;;;2.00;;
70757;SDS011;59316;52.964;7.102;2022-11-15T18:34:37;4.80;;;2.43;;
70757;SDS011;59316;52.964;7.102;2022-11-15T18:39:40;5.00;;;2.40;;
70757;SDS011;59316;52.964;7.102;2022-11-15T18:44:42;2.92;;;2.30;;
70757;SDS011;59316;52.964;7.102;2022-11-15T18:49:44;4.07;;;2.60;;
70757;SDS011;59316;52.964;7.102;2022-11-15T18:54:46;3.63;;;2.47;;
70757;SDS011;59316;52.964;7.102;2022-11-15T18:59:49;5.60;;;2.67;;
70757;SDS011;59316;52.964;7.102;2022-11-15T19:04:51;3.58;;;2.53;;
70757;SDS011;59316;52.964;7.102;2022-11-15T19:09:53;7.43;;;2.70;;
70757;SDS011;59316;52.964;7.102;2022-11-15T19:14:55;5.70;;;2.63;;
70757;SDS011;59316;52.964;7.102;2022-11-15T19:19:58;7.38;;;2.80;;
70757;SDS011;59316;52.964;7.102;2022-11-15T19:25:00;6.13;;;3.00;;
70757;SDS011;59316;52.964;7.102;2022-11-15T19:30:02;3.70;;;2.45;;
70757;SDS011;59316;52.964;7.102;2022-11-15T19:35:05;5.40;;;2.70;;
70757;SDS011;59316;52.964;7.102;2022-11-15T19:40:08;4.73;;;2.70;;
70757;SDS011;59316;52.964;7.102;2022-11-15T19:45:10;3.97;;;2.75;;
70757;SDS011;59316;52.964;7.102;2022-11-15T19:50:13;5.97;;;2.90;;
70757;SDS011;59316;52.964;7.102;2022-11-15T19:55:16;5.60;;;3.30;;
70757;SDS011;59316;52.964;7.102;2022-11-15T20:00:18;5.18;;;2.85;;
70757;SDS011;59316;52.964;7.102;2022-11-15T20:05:21;5.00;;;2.90;;
70757;SDS011;59316;52.964;7.102;2022-11-15T20:10:23;5.57;;;2.60;;
70757;SDS011;59316;52.964;7.102;2022-11-15T20:15:25;4.65;;;3.00;;
70757;SDS011;59316;52.964;7.102;2022-11-15T20:20:27;5.77;;;3.30;;
70757;SDS011;59316;52.964;7.102;2022-11-15T20:25:30;7.32;;;3.20;;
70757;SDS011;59316;52.964;7.102;2022-11-15T20:30:32;5.13;;;2.80;;
70757;SDS011;59316;52.964;7.102;2022-11-15T20:35:35;4.22;;;2.60;;
70757;SDS011;59316;52.964;7.102;2022-11-15T20:40:37;3.80;;;3.00;;
70757;SDS011;59316;52.964;7.102;2022-11-15T20:45:47;4.20;;;2.50;;
70757;SDS011;59316;52.964;7.102;2022-11-15T20:50:50;3.92;;;2.88;;
70757;SDS011;59316;52.964;7.102;2022-11-15T20:55:52;4.97;;;2.93;;
70757;SDS011;59316;52.964;7.102;2022-11-15T21:00:55;5.25;;;3.42;;
70757;SDS011;59316;52.964;7.102;2022-11-15T21:05:57;6.47;;;3.60;;
70757;SDS011;59316;52.964;7.102;2022-11-15T21:10:59;7.27;;;3.63;;
70757;SDS011;59316;52.964;7.102;2022-11-15T21:16:02;4.57;;;3.30;;
70757;SDS011;59316;52.964;7.102;2022-11-15T21:21:04;8.53;;;3.80;;
70757;SDS011;59316;52.964;7.102;2022-11-15T21:26:07;5.68;;;3.78;;
70757;SDS011;59316;52.964;7.102;2022-11-15T21:31:09;6.73;;;4.07;;
70757;SDS011;59316;52.964;7.102;2022-11-15T21:36:11;8.07;;;4.50;;
70757;SDS011;59316;52.964;7.102;2022-11-15T21:41:14;9.15;;;4.40;;
70757;SDS011;59316;52.964;7.102;2022-11-15T21:46:16;8.48;;;5.28;;
70757;SDS011;59316;52.964;7.102;2022-11-15T21:51:19;7.18;;;4.88;;
70757;SDS011;59316;52.964;7.102;2022-11-15T21:56:21;6.53;;;4.77;;
70757;SDS011;59316;52.964;7.102;2022-11-15T22:01:24;9.05;;;5.50;;
70757;SDS011;59316;52.964;7.102;2022-11-15T22:06:28;8.18;;;5.43;;
70757;SDS011;59316;52.964;7.102;2022-11-15T22:11:30;10.30;;;6.05;;
70757;SDS011;59316;52.964;7.102;2022-11-15T22:16:33;9.05;;;5.70;;
70757;SDS011;59316;52.964;7.102;2022-11-15T22:21:35;10.60;;;5.80;;
70757;SDS011;59316;52.964;7.102;2022-11-15T22:26:37;8.13;;;5.80;;
70757;SDS011;59316;52.964;7.102;2022-11-15T22:31:40;11.95;;;6.55;;
70757;SDS011;59316;52.964;7.102;2022-11-15T22:36:42;11.67;;;6.23;;
70757;SDS011;59316;52.964;7.102;2022-11-15T22:42:04;10.80;;;6.57;;
70757;SDS011;59316;52.964;7.102;2022-11-15T22:47:06;9.88;;;6.50;;
70757;SDS011;59316;52.964;7.102;2022-11-15T22:52:09;11.02;;;6.82;;
70757;SDS011;59316;52.964;7.102;2022-11-15T22:57:12;13.70;;;6.88;;
70757;SDS011;59316;52.964;7.102;2022-11-15T23:02:14;17.73;;;7.78;;
70757;SDS011;59316;52.964;7.102;2022-11-15T23:07:16;13.35;;;7.47;;
70757;SDS011;59316;52.964;7.102;2022-11-15T23:12:18;13.10;;;7.73;;
70757;SDS011;59316;52.964;7.102;2022-11-15T23:17:21;15.32;;;8.10;;
70757;SDS011;59316;52.964;7.102;2022-11-15T23:22:23;13.30;;;7.97;;
70757;SDS011;59316;52.964;7.102;2022-11-15T23:27:25;11.27;;;7.18;;
70757;SDS011;59316;52.964;7.102;2022-11-15T23:32:28;14.15;;;8.68;;
70757;SDS011;59316;52.964;7.102;2022-11-15T23:37:30;12.18;;;7.63;;
70757;SDS011;59316;52.964;7.102;2022-11-15T23:42:33;11.52;;;7.57;;
70757;SDS011;59316;52.964;7.102;2022-11-15T23:47:35;15.30;;;8.10;;
70757;SDS011;59316;52.964;7.102;2022-11-15T23:52:38;12.45;;;7.28;;
70757;SDS011;59316;52.964;7.102;2022-11-15T23:57:40;11.68;;;7.55;;
